createdAt,value
2022-12-27T00:00:59.689Z,13.25
2022-12-27T00:02:04.616Z,12.81
2022-12-27T00:03:08.690Z,13.69
2022-12-27T00:29:04.481Z,12.75
2022-12-27T00:30:14.346Z,13.25
2022-12-27T00:31:20.583Z,13.31
2022-12-27T00:32:26.189Z,13.50
2022-12-27T00:33:35.787Z,11.81
2022-12-27T00:34:39.882Z,9.63
2022-12-27T00:35:46.894Z,12.06
2022-12-27T00:36:50.924Z,10.75
2022-12-27T00:37:54.904Z,13.19
2022-12-27T00:39:00.482Z,13.27
2022-12-27T00:40:07.179Z,11.81
2022-12-27T00:41:11.827Z,13.88
2022-12-27T00:42:15.869Z,12.69
2022-12-27T00:43:21.502Z,12.00
2022-12-27T01:27:21.798Z,9.75
2022-12-27T01:28:29.190Z,10.00
2022-12-27T01:29:34.719Z,9.88
2022-12-27T01:30:41.719Z,10.88
2022-12-27T01:31:45.776Z,11.19
2022-12-27T01:32:51.419Z,8.81
2022-12-27T01:33:58.033Z,11.44
2022-12-27T01:35:02.466Z,11.31
2022-12-27T01:36:20.797Z,9.88
2022-12-27T01:37:24.752Z,10.63
2022-12-27T01:38:28.616Z,13.25
2022-12-27T01:39:32.659Z,11.38
2022-12-27T01:40:38.429Z,12.13
2022-12-27T01:41:45.296Z,9.38
2022-12-27T01:42:49.222Z,11.19
2022-12-27T01:43:53.105Z,10.31
2022-12-27T01:45:00.456Z,11.75
2022-12-27T01:46:04.606Z,8.87
2022-12-27T01:47:29.112Z,12.88
2022-12-27T01:48:34.777Z,11.75
2022-12-27T01:49:44.210Z,6.69
2022-12-27T01:50:52.740Z,12.13
2022-12-27T01:51:56.852Z,9.31
2022-12-27T01:53:19.443Z,11.38
2022-12-27T01:54:23.940Z,11.88
2022-12-27T01:55:42.834Z,11.06
2022-12-27T01:56:46.998Z,11.19
2022-12-27T01:57:55.259Z,11.44
2022-12-27T01:59:02.252Z,11.00
2022-12-27T02:00:10.531Z,11.06
2022-12-27T02:01:19.103Z,12.25
2022-12-27T02:02:25.030Z,11.88
2022-12-27T02:03:36.339Z,11.50
2022-12-27T02:04:40.873Z,8.94
2022-12-27T02:05:45.005Z,12.56
2022-12-27T02:06:51.449Z,9.69
2022-12-27T02:09:28.357Z,11.12
2022-12-27T02:24:33.740Z,13.19
2022-12-27T02:26:03.384Z,11.81
2022-12-27T02:27:10.228Z,12.94
2022-12-27T02:28:50.370Z,12.00
2022-12-27T02:30:08.455Z,12.88
2022-12-27T02:31:21.174Z,14.13
2022-12-27T02:32:33.802Z,12.75
2022-12-27T02:33:43.032Z,12.44
2022-12-27T02:35:04.236Z,12.81
2022-12-27T02:36:11.675Z,12.81
2022-12-27T02:37:22.433Z,11.88
2022-12-27T02:38:29.310Z,12.81
2022-12-27T02:39:36.342Z,13.13
2022-12-27T02:40:48.226Z,11.88
2022-12-27T02:41:51.066Z,10.38
2022-12-27T02:42:57.366Z,12.63
2022-12-27T02:44:01.473Z,13.31
2022-12-27T02:45:08.356Z,13.06
2022-12-27T02:46:25.974Z,13.00
2022-12-27T02:47:31.090Z,9.94
2022-12-27T02:48:35.013Z,11.38
2022-12-27T02:49:41.980Z,13.13
2022-12-27T02:51:05.105Z,11.67
2022-12-27T02:52:24.206Z,11.94
2022-12-27T02:53:46.162Z,11.25
2022-12-27T02:55:12.470Z,11.38
2022-12-27T02:56:22.018Z,10.81
2022-12-27T02:57:37.475Z,13.38
2022-12-27T02:58:50.252Z,13.19
2022-12-27T03:00:09.010Z,11.31
2022-12-27T03:01:27.956Z,9.07
2022-12-27T03:02:45.611Z,10.75
2022-12-27T03:03:57.000Z,11.87
2022-12-27T03:05:20.379Z,10.94
2022-12-27T03:06:27.406Z,12.00
2022-12-27T03:08:03.774Z,11.63
2022-12-27T03:09:38.617Z,11.38
2022-12-27T03:10:55.568Z,9.63
2022-12-27T03:15:44.706Z,13.13
2022-12-27T03:16:57.314Z,11.44
2022-12-27T03:18:05.903Z,13.13
2022-12-27T03:35:54.760Z,11.25
2022-12-27T03:37:12.927Z,14.75
2022-12-27T03:38:17.155Z,11.47
2022-12-27T03:39:29.531Z,14.06
2022-12-27T03:40:50.380Z,13.88
2022-12-27T03:42:03.446Z,13.69
2022-12-27T03:43:05.441Z,12.50
2022-12-27T03:44:11.003Z,13.06
2022-12-27T03:45:15.083Z,10.81
2022-12-27T03:46:24.293Z,12.50
2022-12-27T03:47:44.426Z,13.81
2022-12-27T03:49:10.772Z,14.06
2022-12-27T03:50:18.005Z,14.69
2022-12-27T03:51:25.009Z,11.50
2022-12-27T03:52:40.660Z,12.25
2022-12-27T03:53:46.265Z,14.50
2022-12-27T03:54:52.411Z,13.40
2022-12-27T03:55:58.559Z,12.69
2022-12-27T03:57:08.207Z,12.81
2022-12-27T03:58:14.963Z,11.88
2022-12-27T03:59:19.002Z,13.31
2022-12-27T04:00:23.919Z,12.75
2022-12-27T04:01:28.071Z,15.19
2022-12-27T04:02:33.882Z,13.27
2022-12-27T04:03:41.050Z,12.88
2022-12-27T04:04:45.587Z,11.06
2022-12-27T04:05:51.051Z,13.38
2022-12-27T04:06:58.545Z,12.67
2022-12-27T04:08:04.928Z,11.12
2022-12-27T04:09:15.926Z,12.00
2022-12-27T04:10:19.907Z,11.94
2022-12-27T04:11:23.826Z,12.69
2022-12-27T04:12:27.878Z,13.07
2022-12-27T04:13:31.872Z,11.63
2022-12-27T04:14:35.760Z,11.94
2022-12-27T04:15:39.658Z,13.19
2022-12-27T04:16:43.667Z,13.87
2022-12-27T04:17:47.610Z,12.44
2022-12-27T04:18:53.815Z,13.06
2022-12-27T04:19:57.742Z,8.56
2022-12-27T04:21:01.874Z,11.81
2022-12-27T04:22:05.883Z,11.44
2022-12-27T04:23:12.356Z,12.75
2022-12-27T04:24:16.267Z,11.94
2022-12-27T04:25:20.215Z,11.75
2022-12-27T04:26:26.377Z,11.75
2022-12-27T04:27:30.219Z,12.33
2022-12-27T04:28:34.427Z,12.19
2022-12-27T04:29:38.411Z,13.38
2022-12-27T04:30:42.612Z,13.60
2022-12-27T04:31:46.547Z,15.53
2022-12-27T04:32:51.974Z,12.69
2022-12-27T04:33:55.909Z,13.06
2022-12-27T04:34:59.793Z,12.50
2022-12-27T04:36:06.414Z,12.25
2022-12-27T04:37:12.150Z,12.06
2022-12-27T04:38:17.347Z,12.56
2022-12-27T04:39:23.119Z,12.88
2022-12-27T04:40:27.114Z,14.19
2022-12-27T04:41:31.114Z,11.50
2022-12-27T04:42:35.052Z,13.40
2022-12-27T04:43:39.936Z,12.81
2022-12-27T04:44:46.472Z,13.13
2022-12-27T04:45:50.380Z,9.06
2022-12-27T04:46:54.601Z,18.12
2022-12-27T04:48:01.389Z,13.00
2022-12-27T04:49:05.528Z,13.69
2022-12-27T04:50:26.017Z,12.19
2022-12-27T04:51:34.865Z,12.06
2022-12-27T04:52:37.340Z,13.44
2022-12-27T04:53:41.353Z,11.12
2022-12-27T04:54:49.430Z,14.25
2022-12-27T04:56:44.797Z,14.00
2022-12-27T04:57:05.203Z,14.44
2022-12-27T04:58:09.282Z,13.69
2022-12-27T04:59:13.325Z,14.19
2022-12-27T05:00:21.581Z,11.81
2022-12-27T05:01:27.115Z,12.37
2022-12-27T05:02:31.414Z,13.81
2022-12-27T05:05:00.787Z,11.94
2022-12-27T11:42:21.089Z,29.69
2022-12-27T11:43:30.593Z,26.60
2022-12-27T11:44:40.109Z,27.44
2022-12-27T11:59:23.105Z,27.53
2022-12-27T12:00:33.640Z,29.50
2022-12-27T12:02:02.693Z,29.19
2022-12-27T12:03:39.548Z,27.87
2022-12-27T12:09:39.146Z,28.33
2022-12-27T12:11:05.573Z,28.25
2022-12-27T12:12:46.866Z,29.27
2022-12-27T12:13:59.320Z,28.25
2022-12-27T12:15:38.272Z,27.47
2022-12-27T12:17:10.201Z,27.00
2022-12-27T12:18:24.130Z,29.13
2022-12-27T12:19:49.184Z,27.40
2022-12-27T12:21:24.603Z,30.81
2022-12-27T12:22:44.924Z,33.06
2022-12-27T12:24:33.865Z,33.13
2022-12-27T12:25:49.540Z,31.31
2022-12-27T12:27:14.546Z,28.44
2022-12-27T12:29:45.343Z,30.27
2022-12-27T12:31:13.471Z,27.60
2022-12-27T12:32:43.013Z,27.25
2022-12-27T12:34:20.625Z,29.25
2022-12-27T12:35:53.753Z,28.19
2022-12-27T12:37:36.701Z,27.00
2022-12-27T12:39:13.219Z,28.62
2022-12-27T12:55:01.908Z,28.00
2022-12-27T12:59:06.848Z,21.20
2022-12-27T12:59:41.231Z,27.60
2022-12-27T14:12:55.213Z,27.80
2022-12-27T18:19:54.088Z,1.31
2022-12-27T19:06:24.380Z,3.75
2022-12-27T19:07:28.691Z,2.19
2022-12-27T19:08:41.759Z,3.94
2022-12-27T19:09:54.481Z,3.25
2022-12-27T19:10:58.902Z,3.44
2022-12-27T19:12:22.391Z,3.37
2022-12-27T19:13:35.652Z,2.87
2022-12-27T19:14:45.663Z,2.69
2022-12-27T19:15:50.779Z,2.31
2022-12-27T19:16:58.788Z,2.31
2022-12-27T19:18:05.832Z,2.50
2022-12-27T19:35:00.182Z,2.37
2022-12-27T19:35:28.263Z,2.19
2022-12-27T19:36:08.899Z,2.75
2022-12-27T20:07:25.404Z,2.37
2022-12-27T20:08:41.818Z,2.81
2022-12-27T20:09:46.335Z,1.75
2022-12-27T20:10:53.209Z,3.12
2022-12-27T20:11:59.367Z,2.69
2022-12-27T20:13:08.323Z,2.44
2022-12-27T20:14:12.584Z,1.75
2022-12-27T20:15:16.903Z,0.37
2022-12-27T20:16:25.257Z,3.19
2022-12-27T20:17:32.117Z,3.50
2022-12-27T20:18:40.867Z,3.00
2022-12-27T20:19:46.729Z,3.56
2022-12-27T20:20:51.680Z,1.37
2022-12-27T20:21:58.803Z,4.06
2022-12-27T20:23:02.048Z,2.69
2022-12-27T20:24:10.913Z,2.87
2022-12-27T20:25:19.575Z,3.06
2022-12-27T20:26:26.057Z,2.44
2022-12-27T20:27:32.144Z,2.75
2022-12-27T20:28:36.644Z,3.00
2022-12-27T20:29:43.782Z,2.62
2022-12-27T20:30:47.728Z,2.69
2022-12-27T20:31:59.254Z,3.25
2022-12-27T20:33:03.893Z,3.44
2022-12-27T20:34:27.591Z,2.06
2022-12-27T20:35:21.495Z,2.31
2022-12-27T20:38:12.297Z,3.25
2022-12-27T20:39:30.295Z,1.81
2022-12-27T20:40:39.006Z,2.94
2022-12-27T20:42:02.430Z,2.00
2022-12-27T20:43:02.690Z,3.19
2022-12-27T20:44:06.969Z,2.62
2022-12-27T20:45:11.740Z,2.12
2022-12-27T20:46:22.073Z,1.37
2022-12-27T20:47:26.327Z,3.69
2022-12-27T20:48:30.575Z,2.37
2022-12-27T20:49:34.904Z,2.25
2022-12-27T20:50:41.071Z,1.81
2022-12-27T20:51:48.036Z,1.75
2022-12-27T20:52:56.217Z,2.06
2022-12-27T20:54:02.755Z,1.50
2022-12-27T20:55:10.241Z,2.69
2022-12-27T20:56:16.533Z,2.50
2022-12-27T20:57:21.995Z,2.00
2022-12-27T20:58:26.372Z,1.81
2022-12-27T20:59:30.621Z,2.56
2022-12-27T21:00:34.847Z,2.69
2022-12-27T21:01:40.930Z,2.56
2022-12-27T21:02:45.592Z,2.37
2022-12-27T21:03:50.144Z,2.31
2022-12-27T21:04:54.265Z,2.75
2022-12-27T21:05:58.451Z,3.06
2022-12-27T21:07:10.709Z,2.75
2022-12-27T21:08:23.639Z,3.25
2022-12-27T21:09:29.000Z,3.25
2022-12-27T21:10:35.190Z,2.25
2022-12-27T21:11:40.737Z,3.00
2022-12-27T21:12:46.442Z,2.31
2022-12-27T21:13:50.782Z,2.62
2022-12-27T21:14:58.217Z,3.69
2022-12-27T21:16:08.910Z,2.69
2022-12-27T21:17:14.805Z,3.44
2022-12-27T21:18:20.552Z,3.94
2022-12-27T21:19:27.942Z,2.25
2022-12-27T21:20:31.966Z,2.69
2022-12-27T21:21:38.277Z,3.00
2022-12-27T21:22:42.866Z,3.00
2022-12-27T21:23:47.615Z,2.50
2022-12-27T21:24:51.752Z,2.69
2022-12-27T21:25:56.157Z,2.44
2022-12-27T21:27:00.419Z,2.44
2022-12-27T21:28:06.550Z,1.50
2022-12-27T21:29:13.152Z,3.69
2022-12-27T21:30:17.499Z,2.56
2022-12-27T21:31:25.897Z,2.37
2022-12-27T21:32:31.515Z,2.31
2022-12-27T21:33:38.309Z,2.00
2022-12-27T21:34:42.588Z,2.44
2022-12-27T21:35:51.549Z,2.31
2022-12-27T21:36:57.285Z,3.00
2022-12-27T21:38:01.513Z,2.62
2022-12-27T21:39:09.478Z,1.81
2022-12-27T21:40:13.809Z,1.37
2022-12-27T21:41:22.471Z,2.62
2022-12-27T21:42:26.936Z,2.56
2022-12-27T21:43:35.214Z,2.75
2022-12-27T21:44:39.744Z,2.12
2022-12-27T21:45:43.682Z,2.50
2022-12-27T21:46:48.521Z,2.00
2022-12-27T21:47:52.823Z,3.06
2022-12-27T21:48:59.991Z,2.62
2022-12-27T21:50:04.251Z,4.31
2022-12-27T21:51:13.354Z,2.62
2022-12-27T21:52:17.621Z,2.81
2022-12-27T21:53:22.002Z,2.75
2022-12-27T21:54:27.891Z,2.81
2022-12-27T21:55:32.656Z,1.69
2022-12-27T21:56:37.976Z,1.44
2022-12-27T21:57:42.351Z,2.06
2022-12-27T21:58:47.818Z,2.31
2022-12-27T21:59:55.831Z,3.31
2022-12-27T22:01:08.613Z,3.00
2022-12-27T22:02:21.716Z,3.12
2022-12-27T22:03:28.086Z,1.69
2022-12-27T22:04:40.788Z,3.56
2022-12-27T22:05:44.883Z,3.56
2022-12-27T22:06:52.728Z,2.00
2022-12-27T22:08:00.211Z,2.56
2022-12-27T22:09:12.132Z,2.69
2022-12-27T22:10:24.230Z,2.75
2022-12-27T22:11:38.171Z,2.19
2022-12-27T22:12:42.663Z,3.06
2022-12-27T22:13:49.301Z,0.13
2022-12-27T22:14:58.659Z,2.62
2022-12-27T22:16:05.688Z,2.44
2022-12-27T22:17:10.019Z,1.81
2022-12-27T22:18:14.051Z,2.25
2022-12-27T22:19:18.089Z,2.12
2022-12-27T22:20:22.445Z,2.31
2022-12-27T22:21:29.376Z,2.81
2022-12-27T22:22:39.140Z,2.44
2022-12-27T22:23:51.921Z,2.44
2022-12-27T22:25:03.663Z,3.44
2022-12-27T22:26:14.913Z,2.75
2022-12-27T22:27:22.811Z,1.69
2022-12-27T22:28:27.284Z,0.56
2022-12-27T22:29:35.360Z,2.75
2022-12-27T22:30:41.604Z,2.94
2022-12-27T22:31:45.566Z,2.94
2022-12-27T22:32:54.808Z,3.81
2022-12-27T22:33:58.876Z,3.31
2022-12-27T22:35:03.046Z,2.94
2022-12-27T22:36:19.147Z,2.37
2022-12-27T22:37:23.071Z,3.44
2022-12-27T22:38:28.651Z,3.69
2022-12-27T22:39:32.795Z,2.94
2022-12-27T22:40:46.204Z,2.25
2022-12-27T22:41:42.606Z,2.81
2022-12-27T22:42:46.843Z,5.44
2022-12-27T22:43:56.427Z,2.87
2022-12-27T22:45:00.520Z,3.06
2022-12-27T22:46:13.025Z,2.69
2022-12-27T22:47:26.732Z,2.12
2022-12-27T22:48:23.066Z,3.06
2022-12-27T22:49:28.782Z,2.56
2022-12-27T22:50:33.054Z,2.87
2022-12-27T22:51:40.017Z,3.56
2022-12-27T22:52:47.972Z,1.62
2022-12-27T22:53:52.626Z,3.25
2022-12-27T22:55:04.990Z,2.87
2022-12-27T22:56:02.384Z,3.00
2022-12-27T22:57:06.508Z,2.37
2022-12-27T22:58:11.132Z,2.50
2022-12-27T22:59:16.652Z,3.56
2022-12-27T23:00:22.580Z,3.00
2022-12-27T23:01:31.860Z,3.69
2022-12-27T23:02:46.348Z,3.50
2022-12-27T23:03:50.610Z,3.31
2022-12-27T23:04:54.783Z,2.50
2022-12-27T23:06:02.136Z,3.19
2022-12-27T23:07:06.140Z,2.87
2022-12-27T23:08:10.301Z,3.56
2022-12-27T23:09:14.391Z,3.25
2022-12-27T23:10:18.490Z,3.19
2022-12-27T23:11:28.530Z,3.81
2022-12-27T23:12:32.574Z,2.94
2022-12-27T23:13:36.763Z,2.75
2022-12-27T23:14:41.395Z,3.37
2022-12-27T23:15:45.351Z,3.87
2022-12-27T23:16:51.128Z,4.25
2022-12-27T23:17:55.277Z,3.56
2022-12-27T23:18:59.861Z,4.06
2022-12-27T23:20:04.418Z,4.19
2022-12-27T23:21:21.864Z,2.37
2022-12-27T23:22:19.385Z,3.69
2022-12-27T23:23:23.819Z,3.56
2022-12-27T23:24:29.771Z,3.69
2022-12-27T23:25:37.200Z,2.25
2022-12-27T23:26:42.055Z,3.69
2022-12-27T23:27:46.213Z,3.50
2022-12-27T23:28:51.832Z,2.87
2022-12-27T23:29:57.297Z,2.62
2022-12-27T23:31:01.447Z,3.25
2022-12-27T23:32:05.985Z,2.87
2022-12-27T23:33:10.077Z,3.94
2022-12-27T23:34:14.631Z,3.31
2022-12-27T23:35:18.760Z,3.19
2022-12-27T23:36:25.705Z,2.44
2022-12-27T23:37:32.507Z,2.69
2022-12-27T23:38:37.012Z,4.19
2022-12-27T23:39:41.489Z,4.37
2022-12-27T23:40:45.558Z,4.37
2022-12-27T23:41:49.809Z,3.87
2022-12-27T23:43:02.529Z,3.25
2022-12-27T23:44:01.290Z,4.00
2022-12-27T23:45:05.780Z,3.44
2022-12-27T23:46:15.567Z,3.56
2022-12-27T23:47:24.584Z,2.50
2022-12-27T23:48:30.772Z,4.19
2022-12-27T23:49:38.819Z,4.37
2022-12-27T23:50:43.128Z,3.81
2022-12-27T23:51:47.468Z,4.25
2022-12-27T23:52:51.892Z,6.19
2022-12-27T23:53:57.750Z,3.62
2022-12-27T23:55:10.165Z,3.31
2022-12-27T23:56:27.758Z,3.94
2022-12-27T23:57:29.075Z,4.06
2022-12-27T23:58:38.675Z,3.19
2022-12-27T23:59:49.247Z,4.44
